sensor_id;sensor_type;location;lat;lon;timestamp;noise_LAeq;noise_LA_min;noise_LA_max;noise_LA01;noise_LA95
45651;Laerm;31365;48.858;8.530;2023-09-18T00:00:09;42.07;39.58;46.33;;
45651;Laerm;31365;48.858;8.530;2023-09-18T00:02:39;42.59;40.53;51.38;;
45651;Laerm;31365;48.858;8.530;2023-09-18T00:05:07;55.59;40.23;81.75;;
45651;Laerm;31365;48.858;8.530;2023-09-18T00:07:36;42.03;39.92;44.11;;
45651;Laerm;31365;48.858;8.530;2023-09-18T00:10:05;41.94;39.34;49.06;;
45651;Laerm;31365;48.858;8.530;2023-09-18T00:12:33;42.13;40.03;54.85;;
45651;Laerm;31365;48.858;8.530;2023-09-18T00:15:04;42.16;39.46;45.42;;
45651;Laerm;31365;48.858;8.530;2023-09-18T00:17:32;42.88;40.62;53.60;;
45651;Laerm;31365;48.858;8.530;2023-09-18T00:20:02;49.85;40.53;67.34;;
45651;Laerm;31365;48.858;8.530;2023-09-18T00:22:32;42.18;40.33;46.28;;
45651;Laerm;31365;48.858;8.530;2023-09-18T00:25:01;49.59;40.33;68.81;;
45651;Laerm;31365;48.858;8.530;2023-09-18T00:27:29;48.46;40.43;66.30;;
45651;Laerm;31365;48.858;8.530;2023-09-18T00:29:59;49.57;40.13;67.93;;
45651;Laerm;31365;48.858;8.530;2023-09-18T00:32:30;53.24;39.92;74.14;;
45651;Laerm;31365;48.858;8.530;2023-09-18T00:34:59;42.11;40.18;49.15;;
45651;Laerm;31365;48.858;8.530;2023-09-18T00:37:28;42.03;39.70;46.35;;
45651;Laerm;31365;48.858;8.530;2023-09-18T00:39:57;42.03;39.92;47.16;;
45651;Laerm;31365;48.858;8.530;2023-09-18T00:42:25;42.05;39.58;44.23;;
45651;Laerm;31365;48.858;8.530;2023-09-18T00:44:54;42.03;39.70;44.69;;
45651;Laerm;31365;48.858;8.530;2023-09-18T00:47:29;42.37;40.13;52.14;;
45651;Laerm;31365;48.858;8.530;2023-09-18T00:49:58;42.17;40.13;48.46;;
45651;Laerm;31365;48.858;8.530;2023-09-18T00:52:27;42.14;40.23;49.62;;
45651;Laerm;31365;48.858;8.530;2023-09-18T00:54:55;51.59;40.03;69.73;;
45651;Laerm;31365;48.858;8.530;2023-09-18T00:57:24;42.18;40.03;48.12;;
45651;Laerm;31365;48.858;8.530;2023-09-18T00:59:52;42.08;40.23;47.32;;
45651;Laerm;31365;48.858;8.530;2023-09-18T01:02:21;42.18;40.13;45.14;;
45651;Laerm;31365;48.858;8.530;2023-09-18T01:04:50;42.13;40.13;45.80;;
45651;Laerm;31365;48.858;8.530;2023-09-18T01:07:19;42.28;40.03;51.10;;
45651;Laerm;31365;48.858;8.530;2023-09-18T01:09:47;42.20;40.33;50.81;;
45651;Laerm;31365;48.858;8.530;2023-09-18T01:12:27;42.58;40.23;46.57;;
45651;Laerm;31365;48.858;8.530;2023-09-18T01:15:07;42.37;40.23;47.96;;
45651;Laerm;31365;48.858;8.530;2023-09-18T01:17:41;51.10;40.13;70.30;;
45651;Laerm;31365;48.858;8.530;2023-09-18T01:20:12;53.97;39.81;75.73;;
45651;Laerm;31365;48.858;8.530;2023-09-18T01:22:42;42.14;40.03;44.43;;
45651;Laerm;31365;48.858;8.530;2023-09-18T01:25:10;48.92;40.03;70.60;;
45651;Laerm;31365;48.858;8.530;2023-09-18T01:27:39;49.21;39.81;71.78;;
45651;Laerm;31365;48.858;8.530;2023-09-18T01:30:08;51.66;39.92;71.28;;
45651;Laerm;31365;48.858;8.530;2023-09-18T01:32:38;42.04;39.81;45.30;;
45651;Laerm;31365;48.858;8.530;2023-09-18T01:35:08;41.91;39.70;44.03;;
45651;Laerm;31365;48.858;8.530;2023-09-18T01:37:41;41.89;39.34;44.39;;
45651;Laerm;31365;48.858;8.530;2023-09-18T01:40:10;53.72;39.34;76.46;;
45651;Laerm;31365;48.858;8.530;2023-09-18T01:42:40;41.92;39.70;43.99;;
45651;Laerm;31365;48.858;8.530;2023-09-18T01:45:09;41.83;39.46;44.07;;
45651;Laerm;31365;48.858;8.530;2023-09-18T01:47:38;42.10;39.08;47.14;;
45651;Laerm;31365;48.858;8.530;2023-09-18T01:50:07;42.41;40.33;44.39;;
45651;Laerm;31365;48.858;8.530;2023-09-18T01:52:36;41.91;39.46;44.62;;
45651;Laerm;31365;48.858;8.530;2023-09-18T01:55:07;48.00;39.34;66.35;;
45651;Laerm;31365;48.858;8.530;2023-09-18T01:57:36;41.86;39.46;44.31;;
45651;Laerm;31365;48.858;8.530;2023-09-18T02:00:06;41.97;39.58;44.15;;
45651;Laerm;31365;48.858;8.530;2023-09-18T02:02:39;42.20;39.70;44.23;;
45651;Laerm;31365;48.858;8.530;2023-09-18T02:05:11;42.05;39.70;45.33;;
45651;Laerm;31365;48.858;8.530;2023-09-18T02:07:39;52.40;39.92;72.69;;
45651;Laerm;31365;48.858;8.530;2023-09-18T02:10:09;52.66;39.70;73.02;;
45651;Laerm;31365;48.858;8.530;2023-09-18T02:12:39;42.13;39.21;45.20;;
45651;Laerm;31365;48.858;8.530;2023-09-18T02:15:09;44.07;40.33;57.69;;
45651;Laerm;31365;48.858;8.530;2023-09-18T02:17:38;56.13;40.03;79.13;;
45651;Laerm;31365;48.858;8.530;2023-09-18T02:20:09;42.74;40.43;54.23;;
45651;Laerm;31365;48.858;8.530;2023-09-18T02:22:39;42.56;40.33;58.59;;
45651;Laerm;31365;48.858;8.530;2023-09-18T02:25:09;52.02;40.43;70.01;;
45651;Laerm;31365;48.858;8.530;2023-09-18T02:27:38;43.42;41.14;56.27;;
45651;Laerm;31365;48.858;8.530;2023-09-18T02:30:07;60.66;40.89;77.64;;
45651;Laerm;31365;48.858;8.530;2023-09-18T02:32:36;45.95;40.98;66.25;;
45651;Laerm;31365;48.858;8.530;2023-09-18T02:35:06;42.51;40.53;44.80;;
45651;Laerm;31365;48.858;8.530;2023-09-18T02:37:35;51.20;40.43;74.49;;
45651;Laerm;31365;48.858;8.530;2023-09-18T02:40:09;52.27;40.23;72.29;;
45651;Laerm;31365;48.858;8.530;2023-09-18T02:42:38;56.64;40.62;75.61;;
45651;Laerm;31365;48.858;8.530;2023-09-18T02:45:07;42.39;40.36;46.86;;
45651;Laerm;31365;48.858;8.530;2023-09-18T02:47:36;58.70;40.71;77.22;;
45651;Laerm;31365;48.858;8.530;2023-09-18T02:50:08;51.61;40.23;72.22;;
45651;Laerm;31365;48.858;8.530;2023-09-18T02:52:39;48.30;40.53;66.87;;
45651;Laerm;31365;48.858;8.530;2023-09-18T02:55:09;52.43;39.99;71.46;;
45651;Laerm;31365;48.858;8.530;2023-09-18T02:57:38;54.84;39.70;80.11;;
45651;Laerm;31365;48.858;8.530;2023-09-18T03:00:07;53.94;39.70;74.77;;
45651;Laerm;31365;48.858;8.530;2023-09-18T03:02:36;53.98;40.23;71.52;;
45651;Laerm;31365;48.858;8.530;2023-09-18T03:05:06;57.93;39.46;76.97;;
45651;Laerm;31365;48.858;8.530;2023-09-18T03:07:36;58.29;40.43;74.56;;
45651;Laerm;31365;48.858;8.530;2023-09-18T03:10:06;52.98;39.92;71.84;;
45651;Laerm;31365;48.858;8.530;2023-09-18T03:12:36;57.05;39.92;75.18;;
45651;Laerm;31365;48.858;8.530;2023-09-18T03:15:06;42.28;40.23;50.83;;
45651;Laerm;31365;48.858;8.530;2023-09-18T03:17:36;54.09;40.53;71.06;;
45651;Laerm;31365;48.858;8.530;2023-09-18T03:20:06;49.26;40.53;68.64;;
45651;Laerm;31365;48.858;8.530;2023-09-18T03:22:35;53.27;40.71;76.77;;
45651;Laerm;31365;48.858;8.530;2023-09-18T03:25:04;55.06;41.14;74.05;;
45651;Laerm;31365;48.858;8.530;2023-09-18T03:27:33;53.76;40.89;69.63;;
45651;Laerm;31365;48.858;8.530;2023-09-18T03:30:03;58.95;40.71;75.86;;
45651;Laerm;31365;48.858;8.530;2023-09-18T03:32:32;57.28;40.98;74.09;;
45651;Laerm;31365;48.858;8.530;2023-09-18T03:35:00;56.12;41.46;74.87;;
45651;Laerm;31365;48.858;8.530;2023-09-18T03:37:29;58.49;42.53;75.94;;
45651;Laerm;31365;48.858;8.530;2023-09-18T03:39:58;59.05;43.44;72.36;;
45651;Laerm;31365;48.858;8.530;2023-09-18T03:42:26;56.72;43.09;75.21;;
45651;Laerm;31365;48.858;8.530;2023-09-18T03:44:55;55.31;42.65;75.03;;
45651;Laerm;31365;48.858;8.530;2023-09-18T03:49:54;62.49;45.94;84.38;;
45651;Laerm;31365;48.858;8.530;2023-09-18T03:52:22;60.28;43.14;76.35;;
45651;Laerm;31365;48.858;8.530;2023-09-18T03:54:51;62.94;43.44;77.27;;
45651;Laerm;31365;48.858;8.530;2023-09-18T03:57:19;60.75;42.09;77.18;;
45651;Laerm;31365;48.858;8.530;2023-09-18T03:59:47;61.46;42.93;77.26;;
45651;Laerm;31365;48.858;8.530;2023-09-18T04:02:16;65.02;44.65;80.67;;
45651;Laerm;31365;48.858;8.530;2023-09-18T04:04:46;64.60;44.94;78.98;;
45651;Laerm;31365;48.858;8.530;2023-09-18T04:07:14;66.73;43.14;85.06;;
45651;Laerm;31365;48.858;8.530;2023-09-18T04:09:43;64.51;44.23;80.64;;
45651;Laerm;31365;48.858;8.530;2023-09-18T04:12:12;63.12;45.23;77.16;;
45651;Laerm;31365;48.858;8.530;2023-09-18T04:14:41;64.69;46.18;78.64;;
45651;Laerm;31365;48.858;8.530;2023-09-18T04:17:09;62.12;45.66;79.18;;
45651;Laerm;31365;48.858;8.530;2023-09-18T04:19:38;64.88;44.43;77.99;;
45651;Laerm;31365;48.858;8.530;2023-09-18T04:22:08;61.91;44.03;76.67;;
45651;Laerm;31365;48.858;8.530;2023-09-18T04:24:36;64.45;43.72;78.33;;
45651;Laerm;31365;48.858;8.530;2023-09-18T04:27:04;58.64;42.88;77.29;;
45651;Laerm;31365;48.858;8.530;2023-09-18T04:29:34;65.56;42.82;80.58;;
45651;Laerm;31365;48.858;8.530;2023-09-18T04:32:04;64.48;43.44;78.69;;
45651;Laerm;31365;48.858;8.530;2023-09-18T04:34:33;61.15;41.61;76.88;;
45651;Laerm;31365;48.858;8.530;2023-09-18T04:37:02;66.78;41.61;80.32;;
45651;Laerm;31365;48.858;8.530;2023-09-18T04:39:32;64.15;42.29;76.61;;
45651;Laerm;31365;48.858;8.530;2023-09-18T04:42:04;65.23;42.65;80.06;;
45651;Laerm;31365;48.858;8.530;2023-09-18T04:44:32;65.31;43.44;78.96;;
45651;Laerm;31365;48.858;8.530;2023-09-18T04:47:03;66.47;42.82;84.67;;
45651;Laerm;31365;48.858;8.530;2023-09-18T04:49:31;65.00;42.71;78.97;;
45651;Laerm;31365;48.858;8.530;2023-09-18T04:52:00;63.94;42.59;76.43;;
45651;Laerm;31365;48.858;8.530;2023-09-18T04:54:28;64.89;43.49;79.26;;
45651;Laerm;31365;48.858;8.530;2023-09-18T04:56:57;64.10;44.19;76.56;;
45651;Laerm;31365;48.858;8.530;2023-09-18T04:59:26;62.43;43.44;78.09;;
45651;Laerm;31365;48.858;8.530;2023-09-18T05:04:22;65.18;45.69;76.71;;
45651;Laerm;31365;48.858;8.530;2023-09-18T05:06:51;61.95;43.04;76.02;;
45651;Laerm;31365;48.858;8.530;2023-09-18T05:09:20;65.79;46.78;78.58;;
45651;Laerm;31365;48.858;8.530;2023-09-18T05:11:48;65.22;43.19;78.39;;
45651;Laerm;31365;48.858;8.530;2023-09-18T05:14:19;64.28;43.54;77.95;;
45651;Laerm;31365;48.858;8.530;2023-09-18T05:16:47;67.61;48.18;85.43;;
45651;Laerm;31365;48.858;8.530;2023-09-18T05:19:15;64.22;43.94;76.98;;
45651;Laerm;31365;48.858;8.530;2023-09-18T05:21:43;66.54;42.82;82.95;;
45651;Laerm;31365;48.858;8.530;2023-09-18T05:24:11;66.65;45.63;80.20;;
45651;Laerm;31365;48.858;8.530;2023-09-18T05:26:40;65.10;41.14;78.41;;
45651;Laerm;31365;48.858;8.530;2023-09-18T05:29:08;64.15;42.35;81.80;;
45651;Laerm;31365;48.858;8.530;2023-09-18T05:31:38;67.72;45.01;84.21;;
45651;Laerm;31365;48.858;8.530;2023-09-18T05:34:06;63.94;43.04;77.43;;
45651;Laerm;31365;48.858;8.530;2023-09-18T05:36:35;64.26;42.35;77.55;;
45651;Laerm;31365;48.858;8.530;2023-09-18T05:39:04;66.50;42.71;77.81;;
45651;Laerm;31365;48.858;8.530;2023-09-18T05:41:33;63.17;42.36;80.18;;
45651;Laerm;31365;48.858;8.530;2023-09-18T05:44:02;63.29;40.71;81.68;;
45651;Laerm;31365;48.858;8.530;2023-09-18T05:46:31;63.30;42.76;79.29;;
45651;Laerm;31365;48.858;8.530;2023-09-18T05:49:01;63.68;42.16;78.49;;
45651;Laerm;31365;48.858;8.530;2023-09-18T05:51:30;64.55;41.38;80.32;;
45651;Laerm;31365;48.858;8.530;2023-09-18T05:54:00;67.11;43.58;91.11;;
45651;Laerm;31365;48.858;8.530;2023-09-18T05:56:29;65.88;47.57;77.75;;
45651;Laerm;31365;48.858;8.530;2023-09-18T05:58:57;66.10;42.09;84.23;;
45651;Laerm;31365;48.858;8.530;2023-09-18T06:01:25;63.56;43.49;77.86;;
45651;Laerm;31365;48.858;8.530;2023-09-18T06:03:55;62.99;41.46;76.49;;
45651;Laerm;31365;48.858;8.530;2023-09-18T06:06:25;64.43;41.75;79.36;;
45651;Laerm;31365;48.858;8.530;2023-09-18T06:08:54;62.03;41.30;77.89;;
45651;Laerm;31365;48.858;8.530;2023-09-18T06:11:22;63.85;42.53;78.73;;
45651;Laerm;31365;48.858;8.530;2023-09-18T06:13:50;67.49;42.93;82.84;;
45651;Laerm;31365;48.858;8.530;2023-09-18T06:16:19;72.66;41.53;91.82;;
45651;Laerm;31365;48.858;8.530;2023-09-18T06:18:47;64.72;43.24;78.19;;
45651;Laerm;31365;48.858;8.530;2023-09-18T06:21:15;63.28;41.61;78.35;;
45651;Laerm;31365;48.858;8.530;2023-09-18T06:23:45;63.29;41.22;79.37;;
45651;Laerm;31365;48.858;8.530;2023-09-18T06:26:13;63.90;40.33;79.10;;
45651;Laerm;31365;48.858;8.530;2023-09-18T06:28:42;64.11;42.53;79.30;;
45651;Laerm;31365;48.858;8.530;2023-09-18T06:31:10;65.47;42.53;80.74;;
45651;Laerm;31365;48.858;8.530;2023-09-18T06:33:38;63.35;42.35;78.65;;
45651;Laerm;31365;48.858;8.530;2023-09-18T06:36:07;64.01;43.49;76.57;;
45651;Laerm;31365;48.858;8.530;2023-09-18T06:38:35;63.91;43.44;79.20;;
45651;Laerm;31365;48.858;8.530;2023-09-18T06:41:05;62.22;41.46;78.16;;
45651;Laerm;31365;48.858;8.530;2023-09-18T06:43:33;61.82;41.96;75.15;;
45651;Laerm;31365;48.858;8.530;2023-09-18T06:46:01;65.04;43.04;78.64;;
45651;Laerm;31365;48.858;8.530;2023-09-18T06:48:29;62.26;41.82;76.55;;
45651;Laerm;31365;48.858;8.530;2023-09-18T06:51:00;65.28;41.30;79.18;;
45651;Laerm;31365;48.858;8.530;2023-09-18T06:53:28;64.98;41.61;81.92;;
45651;Laerm;31365;48.858;8.530;2023-09-18T06:55:56;63.44;40.03;77.52;;
45651;Laerm;31365;48.858;8.530;2023-09-18T06:58:26;64.35;40.13;80.67;;
45651;Laerm;31365;48.858;8.530;2023-09-18T07:00:54;62.45;42.47;78.37;;
45651;Laerm;31365;48.858;8.530;2023-09-18T07:03:25;62.73;40.03;78.03;;
45651;Laerm;31365;48.858;8.530;2023-09-18T07:05:55;63.02;41.82;78.18;;
45651;Laerm;31365;48.858;8.530;2023-09-18T07:10:51;62.43;45.36;75.16;;
45651;Laerm;31365;48.858;8.530;2023-09-18T07:13:19;61.79;40.98;79.34;;
45651;Laerm;31365;48.858;8.530;2023-09-18T07:15:49;63.01;46.77;78.73;;
45651;Laerm;31365;48.858;8.530;2023-09-18T07:18:18;63.43;46.95;77.74;;
45651;Laerm;31365;48.858;8.530;2023-09-18T07:20:46;64.64;44.94;80.51;;
45651;Laerm;31365;48.858;8.530;2023-09-18T07:23:15;61.51;40.62;75.38;;
45651;Laerm;31365;48.858;8.530;2023-09-18T07:25:43;64.31;41.82;79.68;;
45651;Laerm;31365;48.858;8.530;2023-09-18T07:30:44;61.74;42.88;78.51;;
45651;Laerm;31365;48.858;8.530;2023-09-18T07:33:14;61.64;41.30;75.76;;
45651;Laerm;31365;48.858;8.530;2023-09-18T07:35:46;64.12;41.75;79.03;;
45651;Laerm;31365;48.858;8.530;2023-09-18T07:38:15;63.81;42.09;79.41;;
45651;Laerm;31365;48.858;8.530;2023-09-18T07:40:44;63.43;42.88;76.23;;
45651;Laerm;31365;48.858;8.530;2023-09-18T07:43:13;62.25;44.11;74.96;;
45651;Laerm;31365;48.858;8.530;2023-09-18T07:45:41;61.47;43.19;75.92;;
45651;Laerm;31365;48.858;8.530;2023-09-18T07:48:10;66.29;40.43;86.06;;
45651;Laerm;31365;48.858;8.530;2023-09-18T07:50:43;63.66;41.96;80.95;;
45651;Laerm;31365;48.858;8.530;2023-09-18T07:53:12;62.46;41.89;80.63;;
45651;Laerm;31365;48.858;8.530;2023-09-18T07:55:40;63.51;41.53;77.87;;
45651;Laerm;31365;48.858;8.530;2023-09-18T07:58:08;60.85;40.03;75.29;;
45651;Laerm;31365;48.858;8.530;2023-09-18T08:00:36;60.70;41.30;76.20;;
45651;Laerm;31365;48.858;8.530;2023-09-18T08:03:04;63.18;43.24;79.85;;
45651;Laerm;31365;48.858;8.530;2023-09-18T08:05:32;59.85;40.23;76.57;;
45651;Laerm;31365;48.858;8.530;2023-09-18T08:08:02;62.43;40.71;78.06;;
45651;Laerm;31365;48.858;8.530;2023-09-18T08:10:32;62.73;42.47;75.05;;
45651;Laerm;31365;48.858;8.530;2023-09-18T08:13:04;60.63;41.75;74.76;;
45651;Laerm;31365;48.858;8.530;2023-09-18T08:15:32;62.89;42.29;77.16;;
45651;Laerm;31365;48.858;8.530;2023-09-18T08:18:00;61.37;41.61;74.41;;
45651;Laerm;31365;48.858;8.530;2023-09-18T08:20:29;56.61;39.46;73.81;;
45651;Laerm;31365;48.858;8.530;2023-09-18T08:22:57;70.35;41.96;90.39;;
45651;Laerm;31365;48.858;8.530;2023-09-18T08:25:29;60.26;41.06;75.29;;
45651;Laerm;31365;48.858;8.530;2023-09-18T08:27:57;65.42;43.19;83.45;;
45651;Laerm;31365;48.858;8.530;2023-09-18T08:30:26;60.87;40.98;80.76;;
45651;Laerm;31365;48.858;8.530;2023-09-18T08:32:54;61.45;41.14;77.04;;
45651;Laerm;31365;48.858;8.530;2023-09-18T08:35:22;71.16;41.14;90.93;;
45651;Laerm;31365;48.858;8.530;2023-09-18T08:37:55;60.82;42.09;76.84;;
45651;Laerm;31365;48.858;8.530;2023-09-18T08:40:23;62.59;42.16;76.45;;
45651;Laerm;31365;48.858;8.530;2023-09-18T08:42:56;62.05;41.30;75.30;;
45651;Laerm;31365;48.858;8.530;2023-09-18T08:45:35;60.66;40.53;78.42;;
45651;Laerm;31365;48.858;8.530;2023-09-18T08:48:06;64.54;42.47;82.10;;
45651;Laerm;31365;48.858;8.530;2023-09-18T08:50:36;61.87;40.03;79.34;;
45651;Laerm;31365;48.858;8.530;2023-09-18T08:53:05;59.60;40.80;78.53;;
45651;Laerm;31365;48.858;8.530;2023-09-18T08:55:34;64.10;42.35;78.60;;
45651;Laerm;31365;48.858;8.530;2023-09-18T08:58:06;64.85;40.53;85.90;;
45651;Laerm;31365;48.858;8.530;2023-09-18T09:00:37;58.68;40.71;74.63;;
45651;Laerm;31365;48.858;8.530;2023-09-18T09:03:05;62.03;42.35;78.29;;
45651;Laerm;31365;48.858;8.530;2023-09-18T09:05:34;56.66;41.53;75.57;;
45651;Laerm;31365;48.858;8.530;2023-09-18T09:08:02;61.12;40.13;76.43;;
45651;Laerm;31365;48.858;8.530;2023-09-18T09:10:31;60.87;38.81;74.90;;
45651;Laerm;31365;48.858;8.530;2023-09-18T09:13:00;64.14;40.13;82.14;;
45651;Laerm;31365;48.858;8.530;2023-09-18T09:15:43;59.66;42.00;73.84;;
45651;Laerm;31365;48.858;8.530;2023-09-18T09:18:14;60.53;42.65;75.31;;
45651;Laerm;31365;48.858;8.530;2023-09-18T09:20:53;64.58;41.61;82.77;;
45651;Laerm;31365;48.858;8.530;2023-09-18T09:23:26;69.68;41.22;88.54;;
45651;Laerm;31365;48.858;8.530;2023-09-18T09:26:12;58.00;40.89;72.13;;
45651;Laerm;31365;48.858;8.530;2023-09-18T09:28:42;59.67;42.47;73.91;;
45651;Laerm;31365;48.858;8.530;2023-09-18T09:31:23;62.65;42.82;79.10;;
45651;Laerm;31365;48.858;8.530;2023-09-18T09:33:53;62.05;41.38;78.63;;
45651;Laerm;31365;48.858;8.530;2023-09-18T09:36:21;61.66;41.14;76.15;;
45651;Laerm;31365;48.858;8.530;2023-09-18T09:38:55;62.71;42.59;77.19;;
45651;Laerm;31365;48.858;8.530;2023-09-18T09:41:25;59.04;41.68;72.89;;
45651;Laerm;31365;48.858;8.530;2023-09-18T09:43:55;60.61;40.43;78.42;;
45651;Laerm;31365;48.858;8.530;2023-09-18T09:46:25;64.16;43.29;80.72;;
45651;Laerm;31365;48.858;8.530;2023-09-18T09:49:00;62.89;41.14;80.44;;
45651;Laerm;31365;48.858;8.530;2023-09-18T09:51:28;61.65;42.76;76.99;;
45651;Laerm;31365;48.858;8.530;2023-09-18T09:53:58;59.33;40.53;75.07;;
45651;Laerm;31365;48.858;8.530;2023-09-18T09:56:45;62.95;42.35;81.86;;
45651;Laerm;31365;48.858;8.530;2023-09-18T09:59:16;60.84;41.38;75.26;;
45651;Laerm;31365;48.858;8.530;2023-09-18T10:01:48;63.94;41.82;78.84;;
45651;Laerm;31365;48.858;8.530;2023-09-18T10:04:19;62.88;40.62;78.54;;
45651;Laerm;31365;48.858;8.530;2023-09-18T10:06:56;64.76;41.61;82.42;;
45651;Laerm;31365;48.858;8.530;2023-09-18T10:09:27;62.04;42.09;78.90;;
45651;Laerm;31365;48.858;8.530;2023-09-18T10:11:57;62.99;44.54;75.73;;
45651;Laerm;31365;48.858;8.530;2023-09-18T10:14:31;59.68;40.80;76.10;;
45651;Laerm;31365;48.858;8.530;2023-09-18T10:17:23;63.34;42.41;75.45;;
45651;Laerm;31365;48.858;8.530;2023-09-18T10:20:02;60.11;41.53;75.02;;
45651;Laerm;31365;48.858;8.530;2023-09-18T10:22:38;60.72;39.34;76.15;;
45651;Laerm;31365;48.858;8.530;2023-09-18T10:25:14;58.95;40.71;79.09;;
45651;Laerm;31365;48.858;8.530;2023-09-18T10:27:48;61.90;42.93;79.28;;
45651;Laerm;31365;48.858;8.530;2023-09-18T10:30:20;62.40;41.22;82.10;;
45651;Laerm;31365;48.858;8.530;2023-09-18T10:32:52;63.66;43.14;81.47;;
45651;Laerm;31365;48.858;8.530;2023-09-18T10:35:21;61.97;41.61;77.16;;
45651;Laerm;31365;48.858;8.530;2023-09-18T10:37:54;62.31;40.53;76.54;;
45651;Laerm;31365;48.858;8.530;2023-09-18T10:40:23;60.43;41.14;75.60;;
45651;Laerm;31365;48.858;8.530;2023-09-18T10:42:57;62.93;42.82;78.54;;
45651;Laerm;31365;48.858;8.530;2023-09-18T10:45:25;61.35;40.13;75.42;;
45651;Laerm;31365;48.858;8.530;2023-09-18T10:50:27;62.43;39.70;74.88;;
45651;Laerm;31365;48.858;8.530;2023-09-18T10:52:57;63.26;42.53;79.62;;
45651;Laerm;31365;48.858;8.530;2023-09-18T10:55:26;63.43;41.75;78.98;;
45651;Laerm;31365;48.858;8.530;2023-09-18T10:57:58;62.35;42.35;78.93;;
45651;Laerm;31365;48.858;8.530;2023-09-18T11:00:29;60.74;40.53;73.88;;
45651;Laerm;31365;48.858;8.530;2023-09-18T11:03:15;62.05;40.80;79.32;;
45651;Laerm;31365;48.858;8.530;2023-09-18T11:05:46;60.57;40.33;75.46;;
45651;Laerm;31365;48.858;8.530;2023-09-18T11:08:26;61.66;40.03;76.62;;
45651;Laerm;31365;48.858;8.530;2023-09-18T11:11:03;63.28;43.68;77.08;;
45651;Laerm;31365;48.858;8.530;2023-09-18T11:13:40;64.82;38.67;85.57;;
45651;Laerm;31365;48.858;8.530;2023-09-18T11:16:35;62.03;39.58;78.96;;
45651;Laerm;31365;48.858;8.530;2023-09-18T11:19:11;65.42;43.14;85.44;;
45651;Laerm;31365;48.858;8.530;2023-09-18T11:21:40;63.25;39.81;79.02;;
45651;Laerm;31365;48.858;8.530;2023-09-18T11:24:16;63.10;40.71;78.19;;
45651;Laerm;31365;48.858;8.530;2023-09-18T11:26:47;61.82;40.53;74.31;;
45651;Laerm;31365;48.858;8.530;2023-09-18T11:29:18;64.56;39.46;79.98;;
45651;Laerm;31365;48.858;8.530;2023-09-18T11:31:51;61.37;40.23;75.40;;
45651;Laerm;31365;48.858;8.530;2023-09-18T11:34:24;62.54;40.71;79.54;;
45651;Laerm;31365;48.858;8.530;2023-09-18T11:36:55;61.94;42.59;75.22;;
45651;Laerm;31365;48.858;8.530;2023-09-18T11:39:37;61.74;40.62;75.97;;
45651;Laerm;31365;48.858;8.530;2023-09-18T11:42:11;61.82;42.41;76.96;;
45651;Laerm;31365;48.858;8.530;2023-09-18T11:44:40;60.56;40.71;79.01;;
45651;Laerm;31365;48.858;8.530;2023-09-18T11:47:11;60.78;40.89;74.24;;
45651;Laerm;31365;48.858;8.530;2023-09-18T11:49:50;65.30;45.04;76.83;;
45651;Laerm;31365;48.858;8.530;2023-09-18T11:52:24;62.22;41.82;77.55;;
45651;Laerm;31365;48.858;8.530;2023-09-18T11:54:55;60.01;42.09;77.40;;
45651;Laerm;31365;48.858;8.530;2023-09-18T11:57:24;61.56;41.22;76.52;;
45651;Laerm;31365;48.858;8.530;2023-09-18T11:59:53;62.09;41.14;79.23;;
45651;Laerm;31365;48.858;8.530;2023-09-18T12:02:28;63.99;39.21;82.43;;
45651;Laerm;31365;48.858;8.530;2023-09-18T12:05:10;63.13;39.34;82.69;;
45651;Laerm;31365;48.858;8.530;2023-09-18T12:07:44;58.50;41.22;72.25;;
45651;Laerm;31365;48.858;8.530;2023-09-18T12:10:15;64.13;42.65;80.17;;
45651;Laerm;31365;48.858;8.530;2023-09-18T12:12:45;68.97;41.89;89.68;;
45651;Laerm;31365;48.858;8.530;2023-09-18T12:15:16;59.79;41.30;73.00;;
45651;Laerm;31365;48.858;8.530;2023-09-18T12:17:47;61.63;41.89;74.24;;
45651;Laerm;31365;48.858;8.530;2023-09-18T12:20:18;62.36;41.61;79.71;;
45651;Laerm;31365;48.858;8.530;2023-09-18T12:22:48;61.51;41.38;75.72;;
45651;Laerm;31365;48.858;8.530;2023-09-18T12:25:18;66.13;38.52;87.05;;
45651;Laerm;31365;48.858;8.530;2023-09-18T12:27:51;62.12;41.61;80.53;;
45651;Laerm;31365;48.858;8.530;2023-09-18T12:30:20;61.31;40.80;82.87;;
45651;Laerm;31365;48.858;8.530;2023-09-18T12:32:52;61.80;41.46;78.75;;
45651;Laerm;31365;48.858;8.530;2023-09-18T12:35:23;61.76;42.71;77.72;;
45651;Laerm;31365;48.858;8.530;2023-09-18T12:37:57;58.59;40.33;73.06;;
45651;Laerm;31365;48.858;8.530;2023-09-18T12:40:28;66.84;44.43;85.15;;
45651;Laerm;31365;48.858;8.530;2023-09-18T12:42:58;59.97;41.30;74.22;;
45651;Laerm;31365;48.858;8.530;2023-09-18T12:45:29;62.49;42.65;81.60;;
45651;Laerm;31365;48.858;8.530;2023-09-18T12:47:58;62.97;42.59;76.24;;
45651;Laerm;31365;48.858;8.530;2023-09-18T12:50:28;61.32;40.03;75.79;;
45651;Laerm;31365;48.858;8.530;2023-09-18T12:53:08;59.92;39.70;76.38;;
45651;Laerm;31365;48.858;8.530;2023-09-18T12:55:37;63.59;41.61;77.50;;
45651;Laerm;31365;48.858;8.530;2023-09-18T12:58:06;63.59;41.61;77.50;;
45651;Laerm;31365;48.858;8.530;2023-09-18T13:00:36;60.47;39.92;75.47;;
45651;Laerm;31365;48.858;8.530;2023-09-18T13:03:04;67.23;38.05;88.11;;
45651;Laerm;31365;48.858;8.530;2023-09-18T13:05:34;58.67;41.61;73.98;;
45651;Laerm;31365;48.858;8.530;2023-09-18T13:08:04;59.48;39.34;77.28;;
45651;Laerm;31365;48.858;8.530;2023-09-18T13:10:45;63.20;41.61;82.41;;
45651;Laerm;31365;48.858;8.530;2023-09-18T13:13:17;62.70;42.98;78.65;;
45651;Laerm;31365;48.858;8.530;2023-09-18T13:15:46;63.12;43.39;79.20;;
45651;Laerm;31365;48.858;8.530;2023-09-18T13:18:17;58.92;39.08;73.70;;
45651;Laerm;31365;48.858;8.530;2023-09-18T13:20:48;62.31;39.21;79.02;;
45651;Laerm;31365;48.858;8.530;2023-09-18T13:23:16;60.43;37.70;73.81;;
45651;Laerm;31365;48.858;8.530;2023-09-18T13:25:48;59.63;36.91;76.59;;
45651;Laerm;31365;48.858;8.530;2023-09-18T13:28:16;54.65;39.57;72.26;;
45651;Laerm;31365;48.858;8.530;2023-09-18T13:30:47;61.29;41.14;77.38;;
45651;Laerm;31365;48.858;8.530;2023-09-18T13:33:17;62.36;43.04;77.17;;
45651;Laerm;31365;48.858;8.530;2023-09-18T13:35:48;61.51;40.71;76.50;;
45651;Laerm;31365;48.858;8.530;2023-09-18T13:38:17;63.42;44.19;79.78;;
45651;Laerm;31365;48.858;8.530;2023-09-18T13:40:47;63.42;44.19;79.78;;
45651;Laerm;31365;48.858;8.530;2023-09-18T13:43:15;61.33;38.95;75.62;;
45651;Laerm;31365;48.858;8.530;2023-09-18T13:45:45;62.92;42.09;77.54;;
45651;Laerm;31365;48.858;8.530;2023-09-18T13:48:14;60.22;38.05;76.92;;
45651;Laerm;31365;48.858;8.530;2023-09-18T13:50:44;62.80;40.98;80.48;;
45651;Laerm;31365;48.858;8.530;2023-09-18T13:53:14;62.75;39.46;81.65;;
45651;Laerm;31365;48.858;8.530;2023-09-18T13:55:43;61.73;41.75;75.64;;
45651;Laerm;31365;48.858;8.530;2023-09-18T13:58:11;66.76;42.41;86.66;;
45651;Laerm;31365;48.858;8.530;2023-09-18T14:00:39;62.21;41.53;79.94;;
45651;Laerm;31365;48.858;8.530;2023-09-18T14:03:10;61.81;40.13;75.80;;
45651;Laerm;31365;48.858;8.530;2023-09-18T14:05:42;63.60;38.05;79.18;;
45651;Laerm;31365;48.858;8.530;2023-09-18T14:08:10;63.74;41.38;82.84;;
45651;Laerm;31365;48.858;8.530;2023-09-18T14:10:40;59.95;42.16;74.62;;
45651;Laerm;31365;48.858;8.530;2023-09-18T14:13:10;58.70;40.23;74.13;;